Flight Track Log - Related Links

Times and Time Zones

All times are in EDT time to prevent confusion due to time zone crossing. See the DAL3865 flight status page for this flight to view local times or setup timezone preferences in your user account.

Time Position Orientation Groundspeed Altitude Reporting Facility
EDT Latitude Longitude Course Direction KTS MPH feet Rate Location/Type
Fri 15:30:48 40.4897 -80.1928 291° West 155 178 2,500  Level Cleveland Center
Fri 15:31:47 40.4936 -80.1244 86° East 197 227 4,600 1,800 Climbing Cleveland Center
Fri 15:32:48 40.5497 -80.1075 13° North 245 282 6,100 2,380 Climbing Cleveland Center
Fri 15:33:48 40.5794 -80.2058 292° West 171 197 9,400 2,400 Climbing Cleveland Center
Fri 15:34:00 40.5612 -80.6221 285° West  Level FlightAware Approximate
Fri 15:34:48 40.5922 -80.3206 278° West 214 246 10,900  Level Cleveland Center
Fri 15:35:00 40.5813 -80.7233 285° West  Level FlightAware Approximate
Fri 15:35:48 40.6111 -80.4572 280° West 333 383 12,200  Level Cleveland Center
Fri 15:36:00 40.6072 -80.8168 291° West  Level FlightAware Approximate
Fri 15:36:48 40.6300 -80.5967 280° West 388 447 14,500  Level Cleveland Center
Fri 15:37:48 40.6528 -80.7419 282° West 388 447 15,900 756 Climbing Cleveland Center
Fri 15:38:47 40.6714 -80.8897 279° West 396 456 16,000  Climbing Cleveland Center
Fri 15:39:48 40.6917 -81.0458 280° West 422 486 15,900  Descending Cleveland Center
Fri 15:40:48 40.7117 -81.2075 279° West 443 510 16,000 50 Climbing Cleveland Center
Fri 15:41:48 40.7317 -81.3614 280° West 438 504 16,000  Level Cleveland Center
Fri 15:42:48 40.7931 -81.4936 302° West 420 483 16,000  Level Cleveland Center
Fri 15:43:48 40.8839 -81.6019 318° Northwest 427 491 16,000  Level Cleveland Center
Fri 15:44:48 40.9747 -81.7078 319° Northwest 443 510 16,000  Level Cleveland Center
Fri 15:45:48 41.0569 -81.8058 318° Northwest 443 510 16,000  Level Cleveland Center
Fri 15:46:48 41.1581 -81.9178 320° Northwest 438 504 16,000  Level Cleveland Center
Fri 15:47:48 41.2503 -82.0275 318° Northwest 438 504 16,000  Level Cleveland Center
Fri 15:48:48 41.3386 -82.1400 316° Northwest 438 504 16,000  Level Cleveland Center
Fri 15:49:48 41.4181 -82.2639 311° West 438 504 16,000  Level Cleveland Center
Fri 15:50:48 41.4914 -82.3878 308° West 438 504 16,000  Level Cleveland Center
Fri 15:51:40 41.5564 -82.4950 309° West 438 504 16,000 -395 Level Cleveland Center
Fri 15:52:04 41.5928 -82.5544 309° West 437 503 15,500 -1,676 Descending Cleveland Center
Fri 15:52:48 41.6414 -82.6364 308° West 432 497 14,100 -1,967 Descending Cleveland Center
Fri 15:53:05 41.6636 -82.6761 307° West 416 479 13,500 -1,700 Descending Cleveland Center
Fri 15:53:48 41.7039 -82.7442 308° West 420 483 12,400 -1,377 Descending Cleveland Center
Fri 15:54:06 41.7364 -82.7925 312° West 403 464 12,100 -400 Descending Cleveland Center
Fri 15:54:48 41.7833 -82.8500 318° Northwest 409 471 12,000 -98 Descending Cleveland Center
Fri 15:55:07 41.8239 -82.8986 318° Northwest 419 482 12,000  Level Cleveland Center
Fri 15:55:48 41.8708 -82.9561 318° Northwest 409 471 12,000  Level Cleveland Center
Fri 15:56:08 41.9156 -83.0081 319° Northwest 423 487 12,000  Level Cleveland Center
Fri 15:56:48 41.9561 -83.0597 317° Northwest 415 478 12,000  Level Cleveland Center
Fri 15:57:03 41.9886 -83.0975 319° Northwest 409 471 12,000  Level Cleveland Center
Fri 15:57:48 42.0414 -83.1611 318° Northwest 415 478 12,000  Level Cleveland Center
Fri 15:58:04 42.0761 -83.2017 319° Northwest 396 456 12,000  Level Cleveland Center
Fri 15:58:48 42.1231 -83.2344 333° Northwest 386 444 12,000 -1,033 Level Cleveland Center
Fri 16:00:06 42.2239 -83.2078 11° North 257 296 9,900 -1,350 Descending Cleveland Center
Fri 16:00:48 42.2597 -83.1839 26° Northeast 250 288 9,300 -1,279 Descending Cleveland Center
Fri 16:01:07 42.2872 -83.1711 19° North 221 254 8,600 -1,650 Descending Cleveland Center
Fri 16:02:08 42.3422 -83.1339 27° Northeast 221 254 7,100 -1,279 Descending Cleveland Center
Fri 16:03:09 42.3897 -83.1611 337° Northwest 203 234 6,000 -1,190 Descending Cleveland Center
Fri 16:04:04 42.3842 -83.2200 263° West 177 204 4,800 -1,397 Descending Cleveland Center
Fri 16:05:05 42.3375 -83.2489 205° Southwest 183 211 3,300 -1,475 Descending Cleveland Center

Login

Don't have an account? Register now (free) for customized features, flight alerts, and more!